Tiempo atmosférico en la estación meteorológica de Blanes, Girona (60 m.)



Fecha
DESCASC
Temp. máxima en grados centígrados (hora)
DESCASC
Temp. mínima en grados centígrados (hora)
DESCASC
Temp. media en grados centígrados
DESCASC
Racha de viento máxima en m/sg (hora)
DESCASC
Velocidad máxima media en intervalos de 10 minutos(hora)
DESCASC
Precipitaciones diarias en mm
DESCASC
Precipitaciones de 00:00 a 06:00 en mm
DESCASC
Precipitaciones de 06:00 a 12:00 en mm
DESCASC
Precipitaciones de 12:00 a 18:00 en mm
DESCASC
Precipitaciones de 18:00 a 24:00 en mm
DESCASC
25-04-2019 19.4 (13:40) 13.3 (00:00) 16.3 13.89 (02:30) 8.33 (02:50) 0 0 0 0 0
24-04-2019 17.9 (12:20) 13.3 (22:00) 15.6 18.89 (15:30) 12.22 (14:30) 0 0 0 0 0
23-04-2019 18.4 (16:00) 12.8 (05:40) 15.6 11.39 (16:30) 6.39 (14:20) 2.8 2.8 0 0 0
22-04-2019 17.4 (15:10) 13.3 (00:00) 15.3 13.89 (15:30) 8.89 (15:40) 0.2 0 0.2 0 0
21-04-2019 18.1 (14:50) 13 (00:00) 15.6 14.72 (14:10) 8.89 (15:10) 0 0 0 0 0
20-04-2019 18.5 (12:00) 13 (00:00) 15.8 16.11 (12:30) 8.06 (11:10) 0 0 0 0 0
19-04-2019 19.5 (14:30) 14 (00:00) 16.8 14.72 (15:40) 9.72 (15:20) 0 0 0 0 0
18-04-2019 17.5 (17:20) 12.6 (00:00) 15.1 10.28 (18:30) 7.5 (18:10) 0 0 0 0 0
17-04-2019 19.7 (17:30) 10.2 (00:00) 15 4.72 (21:30) 2.78 (16:30) 0 0 0 0 0
16-04-2019 18.2 (16:00) 10.3 (00:00) 14.3 7.22 (05:30) 5.28 (05:30) 0.2 0.2 0 0 0
15-04-2019 18.3 (15:10) 9.7 (00:00) 14 6.11 (13:00) 4.17 (03:20) 0 0 0 0 0
14-04-2019 16.2 (16:50) 10.1 (00:00) 13.2 7.5 (13:20) 5.28 (11:00) 0 0 0 0 0
13-04-2019 19.4 (15:40) 8.8 (00:00) 14.1 6.94 (19:50) 4.17 (19:50) 0 0 0 0 0
12-04-2019 19.9 (16:10) 11.8 (00:00) 15.8 8.89 (18:20) 5.28 (17:10) 0 0 0 0 0
11-04-2019 17.9 (11:10) 11 (00:00) 14.4 8.06 (00:20) 5 (00:50) 0 0 0 0 0
10-04-2019 17.5 (13:00) 9.4 (00:00) 13.4 11.39 (14:10) 6.11 (08:30) 0.2 0 0 0.2 0
09-04-2019 14.9 (16:20) 9.5 (00:00) 12.2 8.61 (18:00) 5.83 (22:20) 16.6 0 4.2 8.2 4.2
08-04-2019 19.3 (15:50) 9 (00:00) 14.1 7.22 (13:10) 4.72 (16:20) 0 0 0 0 0
07-04-2019 17 (14:10) 8.7 (00:00) 12.8 19.17 (15:50) 9.44 (15:50) 2 0 0 1.8 0.2
06-04-2019 17.5 (14:30) 9.8 (00:00) 13.7 15.83 (16:30) 9.44 (16:30) 2.2 2.2 0 0 0
05-04-2019 17.4 (12:40) 7.4 (00:00) 12.4 10.28 (16:30) 5.83 (16:30) 0 0 0 0 0
04-04-2019 15.5 (16:20) 5.7 (00:00) 10.6 7.78 (08:10) 5.28 (08:10) 0.2 0.2 0 0 0
03-04-2019 19 (15:00) 6.5 (00:00) 12.8 12.5 (17:30) 8.06 (17:40) 15 0 0 0 15
02-04-2019 19.9 (14:00) 10 (00:00) 14.9 8.33 (15:20) 5.56 (15:20) 1.6 0 0 0 1.6
01-04-2019 19.2 (14:50) 10.7 (00:00) 15 5.56 (21:40) 3.61 (21:40) 0 0 0 0 0
31-03-2019 15.9 (14:30) 9.9 (00:00) 12.9 10.56 (16:30) 6.94 (16:30) 0 0 0 0 0
30-03-2019 18.6 (14:20) 8.5 (00:00) 13.6 6.39 (05:30) 4.72 (05:20) 0 0 0 0 0
29-03-2019 18.7 (14:30) 8.7 (00:00) 13.7 6.67 (02:40) 5 (02:30) 0 0 0 0 0
28-03-2019 18.8 (11:50) 10.1 (00:00) 14.4 8.89 (13:30) 6.11 (13:40) 0 0 0 0 0
27-03-2019 19.8 (12:50) 7.6 (00:00) 13.7 6.94 (01:40) 4.44 (23:40) 0 0 0 0 0

Gráficas

Temp. máximas Temp. mínimas Temp. medias Precipitaciones Rachas de viento máximas Velocidades máximas media en intervalos de 10 minutos

Datos horarios

Fecha y hora oficial Temperatura (ºC) Velocidad del viento (km/h) Dirección del viento Racha (km/h) Dirección de racha Precipitación (mm) Presión (hPa) Tendencia (hPa) Humedad (%)
2019-04-25 23:00:00 14 7 Sudoeste 20 Sudoeste 0 -- -- 92
2019-04-25 22:00:00 14.2 9 Sudoeste 17 Sudoeste 0 -- -- 92
2019-04-25 21:00:00 14.5 6 Oeste 28 Sudoeste 0 -- -- 92
2019-04-25 20:00:00 15.2 17 Sur 38 Sudoeste 0 -- -- 90
2019-04-25 19:00:00 16 12 Sudoeste 30 Sudoeste 0 -- -- 84
2019-04-25 18:00:00 16.5 13 Sur 40 Sur 0 -- -- 78
2019-04-25 17:00:00 18.1 12 Sur 30 Sur 0 -- -- 79
2019-04-25 16:00:00 18.1 10 Sur 34 Sudoeste 0 -- -- 78
2019-04-25 15:00:00 18.3 22 Sur 41 Sur 0 -- -- 63
2019-04-25 14:00:00 19 24 Sur 39 Sudoeste 0 -- -- 63
2019-04-25 13:00:00 17.7 26 Sur 39 Sudoeste 0 -- -- 81
2019-04-25 12:00:00 16.9 26 Sur 42 Sudoeste 0 -- -- 84
2019-04-25 11:00:00 15.6 23 Sur 38 Sudoeste 0 -- -- 87
2019-04-25 10:00:00 15.1 21 Sur 31 Sur 0 -- -- 91
2019-04-25 09:00:00 14.5 9 Sur 20 Sudoeste 0 -- -- 93
2019-04-25 08:00:00 14.3 10 Sur 20 Sur 0 -- -- 93
2019-04-25 07:00:00 14.2 10 Sur 21 Sur 0 -- -- 93
2019-04-25 06:00:00 14.2 10 Sur 22 Sudoeste 0 -- -- 93
2019-04-25 05:00:00 14.2 11 Sur 21 Sudoeste 0 -- -- 92
2019-04-25 04:00:00 14.3 12 Sur 41 Sudoeste 0 -- -- 91
2019-04-25 03:00:00 14.2 29 Sudoeste 50 Sudoeste 0 -- -- 91
2019-04-25 02:00:00 14.3 11 Sur 33 Sudoeste 0 -- -- 91
2019-04-25 01:00:00 14.1 8 Sur 27 Sur 0 -- -- 90
2019-04-25 00:00:00 13.3 11 Sur 25 Sur 0 -- -- 86
2019-04-24 23:00:00 13.4 8 Sudoeste 21 Sudoeste 0 -- -- 87
2019-04-24 22:00:00 13.3 10 Sudoeste 21 Sudoeste 0 -- -- 84
2019-04-24 21:00:00 13.8 12 Sudoeste 46 Sur 0 -- -- 81
2019-04-24 20:00:00 14.3 27 Sudoeste 48 Sur 0 -- -- 76
2019-04-24 19:00:00 15.4 28 Sur 65 Sur 0 -- -- 68
2019-04-24 18:00:00 15.7 26 Sudoeste 58 Sur 0 -- -- 62
2019-04-24 17:00:00 16.1 27 Sur 67 Sudoeste 0 -- -- 63
2019-04-24 16:00:00 16.3 28 Sur 68 Sur 0 -- -- 64
2019-04-24 15:00:00 16.5 42 Sur 67 Sur 0 -- -- 66
2019-04-24 14:00:00 16.4 39 Sudoeste 64 Sudoeste 0 -- -- 67
2019-04-24 13:00:00 16.1 35 Sur 52 Sur 0 -- -- 73
2019-04-24 12:00:00 17.4 31 Sur 59 Sudoeste 0 -- -- 56
2019-04-24 11:00:00 17 24 Sur 38 Sur 0 -- -- 58
2019-04-24 10:00:00 14.8 14 Sudoeste 45 Sur 0 -- -- 80
2019-04-24 09:00:00 15.6 20 Sur 49 Sur 0 -- -- 81
2019-04-24 08:00:00 13.8 31 Sudoeste 55 Sudoeste 0 -- -- 85
2019-04-24 07:00:00 13.6 19 Sur 50 Sur 0 -- -- 91
2019-04-24 06:00:00 14 15 Sur 40 Sudoeste 0 -- -- 94
2019-04-24 05:00:00 14.3 24 Sudoeste 41 Sudoeste 0 -- -- 92
2019-04-24 04:00:00 14.1 11 Sudoeste 33 Sur 0 -- -- 93
2019-04-24 03:00:00 14.1 12 Sudoeste 31 Sudoeste 0 -- -- 95
2019-04-24 02:00:00 13.9 11 Sudoeste 25 Sudoeste 0 -- -- 97
2019-04-24 01:00:00 13.8 11 Sur 24 Sudoeste 0 -- -- 97
2019-04-24 00:00:00 14 9 Sudoeste 18 Sudoeste 0 -- -- 97
2019-04-23 23:00:00 14.2 5 Sur 10 Sur 0 -- -- 97
2019-04-23 22:00:00 13.9 4 Sur 22 Sur 0 -- -- 95
2019-04-23 21:00:00 14.3 14 Sur 23 Sur 0 -- -- 94
2019-04-23 20:00:00 15.1 7 Sur 16 Sur 0 -- -- 92
2019-04-23 19:00:00 16.4 8 Sur 21 Sudoeste 0 -- -- 85
2019-04-23 18:00:00 17.2 13 Sur 29 Sudoeste 0 -- -- 81
2019-04-23 17:00:00 18 16 Sur 41 Sur 0 -- -- 76
2019-04-23 16:00:00 18.4 16 Sur 31 Sudoeste 0 -- -- 73
2019-04-23 15:00:00 17.6 16 Sur 40 Sur 0 -- -- 78
2019-04-23 14:00:00 18.2 17 Sur 33 Sudoeste 0 -- -- 77
2019-04-23 13:00:00 17.6 11 Sur 29 Sudoeste 0 -- -- 81
2019-04-23 12:00:00 15.9 9 Sudoeste 23 Sur 0 -- -- 86
2019-04-23 11:00:00 15.5 4 Norte 23 Norte 0 -- -- 87
2019-04-23 10:00:00 14.8 13 Norte 31 Norte 0 -- -- 92
2019-04-23 09:00:00 13.6 19 Norte 30 Norte 0 -- -- 95
2019-04-23 08:00:00 13.2 13 Norte 28 Norte 0 -- -- 96
2019-04-23 07:00:00 12.9 15 Norte 30 Norte 0 -- -- 96
2019-04-23 06:00:00 12.8 12 Norte 33 Norte 0.4 -- -- 96
2019-04-23 05:00:00 12.9 18 Norte 32 Norte 0.4 -- -- 97
2019-04-23 04:00:00 12.9 15 Norte 29 Norte 0.6 -- -- 97
2019-04-23 03:00:00 13 13 Norte 25 Norte 0.6 -- -- 97
2019-04-23 02:00:00 13.2 14 Norte 27 Norte 0 -- -- 96
2019-04-23 01:00:00 13.2 14 Norte 33 Norte 0.8 -- -- 95
2019-04-23 00:00:00 13.3 17 Norte 35 Noroeste 0 -- -- 91
2019-04-22 23:00:00 14.1 14 Norte 31 Nordeste 0 -- -- 82
2019-04-22 22:00:00 14.4 16 Norte 30 Norte 0 -- -- 80
2019-04-22 21:00:00 15.2 16 Nordeste 30 Nordeste 0 -- -- 74
2019-04-22 20:00:00 15.6 10 Nordeste 28 Este 0 -- -- 67
2019-04-22 19:00:00 15.9 13 Nordeste 33 Nordeste 0 -- -- 66
2019-04-22 18:00:00 16.2 12 Nordeste 35 Nordeste 0 -- -- 65
2019-04-22 17:00:00 16.7 19 Nordeste 43 Nordeste 0 -- -- 64
2019-04-22 16:00:00 16.9 26 Nordeste 50 Nordeste 0 -- -- 65
2019-04-22 15:00:00 17.1 27 Nordeste 44 Este 0 -- -- 59
2019-04-22 14:00:00 16.5 20 Nordeste 39 Este 0 -- -- 62
2019-04-22 13:00:00 17.2 25 Nordeste 46 Nordeste 0 -- -- 66
2019-04-22 12:00:00 16.3 25 Nordeste 45 Nordeste 0.2 -- -- 68
2019-04-22 11:00:00 16.3 19 Nordeste 40 Nordeste 0 -- -- 68
2019-04-22 10:00:00 15.9 19 Nordeste 37 Nordeste 0 -- -- 67
2019-04-22 09:00:00 14.3 9 Nordeste 38 Nordeste 0 -- -- 70
2019-04-22 08:00:00 14.9 10 Norte 39 Norte 0 -- -- 66
2019-04-22 07:00:00 14.5 13 Norte 32 Nordeste 0 -- -- 70
2019-04-22 06:00:00 14.7 15 Nordeste 36 Nordeste 0 -- -- 66
2019-04-22 05:00:00 14.8 12 Nordeste 35 Nordeste 0 -- -- 63
2019-04-22 04:00:00 15 20 Nordeste 38 Nordeste 0 -- -- 66
2019-04-22 03:00:00 15 13 Nordeste 35 Este 0 -- -- 65
2019-04-22 02:00:00 14.8 13 Nordeste 36 Nordeste 0 -- -- 64
2019-04-22 01:00:00 14.6 22 Norte 40 Nordeste 0 -- -- 65
2019-04-22 00:00:00 14.5 15 Norte 36 Norte 0 -- -- 69
2019-04-21 23:00:00 14.6 14 Norte 38 Norte 0 -- -- 70
2019-04-21 22:00:00 15 13 Norte 33 Nordeste 0 -- -- 69
2019-04-21 21:00:00 15.5 16 Nordeste 41 Este 0 -- -- 69
2019-04-21 20:00:00 16 15 Nordeste 46 Nordeste 0 -- -- 67
2019-04-21 19:00:00 16.8 23 Nordeste 48 Nordeste 0 -- -- 63
2019-04-21 18:00:00 17.3 24 Nordeste 48 Este 0 -- -- 61
2019-04-21 17:00:00 17.7 23 Nordeste 43 Nordeste 0 -- -- 58
2019-04-21 16:00:00 17.8 26 Nordeste 51 Nordeste 0 -- -- 58
2019-04-21 15:00:00 18.1 30 Nordeste 53 Este 0 -- -- 52
2019-04-21 14:00:00 17.6 24 Nordeste 46 Nordeste 0 -- -- 54
2019-04-21 13:00:00 17.1 26 Nordeste 45 Nordeste 0 -- -- 55
2019-04-21 12:00:00 16.1 22 Nordeste 47 Nordeste 0 -- -- 59
2019-04-21 11:00:00 16.1 18 Nordeste 40 Nordeste 0 -- -- 64
2019-04-21 10:00:00 15.7 14 Nordeste 33 Nordeste 0 -- -- 68
2019-04-21 09:00:00 15 18 Nordeste 41 Este 0 -- -- 67
2019-04-21 08:00:00 14.4 15 Nordeste 39 Norte 0 -- -- 64
2019-04-21 07:00:00 14.5 11 Nordeste 36 Norte 0 -- -- 62
2019-04-21 06:00:00 15.1 14 Nordeste 40 Nordeste 0 -- -- 59
2019-04-21 05:00:00 14.6 14 Nordeste 35 Este 0 -- -- 63
2019-04-21 04:00:00 14.1 13 Nordeste 37 Norte 0 -- -- 65
2019-04-21 03:00:00 13.6 22 Norte 46 Norte 0 -- -- 66
2019-04-21 02:00:00 13.5 25 Norte 48 Norte 0 -- -- 67
2019-04-21 01:00:00 13.2 20 Norte 42 Nordeste 0 -- -- 69
2019-04-21 00:00:00 13.1 24 Norte 49 Norte 0 -- -- 70
2019-04-20 23:00:00 13.2 29 Norte 50 Norte 0 -- -- 71
2019-04-20 22:00:00 13.7 22 Norte 41 Norte 0 -- -- 70
2019-04-20 21:00:00 14 21 Norte 42 Norte 0 -- -- 68
2019-04-20 20:00:00 14.6 15 Norte 35 Noroeste 0 -- -- 65
2019-04-20 19:00:00 16.1 13 Nordeste 47 Norte 0 -- -- 54
2019-04-20 18:00:00 16.3 22 Nordeste 44 Nordeste 0 -- -- 54
2019-04-20 17:00:00 16.7 21 Nordeste 39 Nordeste 0 -- -- 54
2019-04-20 16:00:00 17.1 22 Nordeste 43 Nordeste 0 -- -- 52
2019-04-20 15:00:00 17.7 21 Nordeste 39 Nordeste 0 -- -- 48
2019-04-20 14:00:00 18.2 20 Nordeste 43 Nordeste 0 -- -- 45
2019-04-20 13:00:00 18.3 27 Nordeste 58 Este 0 -- -- 42
2019-04-20 12:00:00 18.5 28 Nordeste 47 Nordeste 0 -- -- 42
2019-04-20 11:00:00 17.6 27 Nordeste 52 Nordeste 0 -- -- 46
2019-04-20 10:00:00 17.1 21 Nordeste 41 Nordeste 0 -- -- 53
2019-04-20 09:00:00 15.9 14 Norte 38 Norte 0 -- -- 58
2019-04-20 08:00:00 14.7 16 Norte 40 Norte 0 -- -- 61
2019-04-20 07:00:00 15 13 Norte 34 Norte 0 -- -- 55
2019-04-20 06:00:00 15.2 14 Norte 37 Norte 0 -- -- 53
2019-04-20 05:00:00 15.3 13 Norte 37 Norte 0 -- -- 51
2019-04-20 04:00:00 15.5 21 Norte 39 Norte 0 -- -- 51
2019-04-20 03:00:00 15.4 17 Norte 41 Norte 0 -- -- 52
2019-04-20 02:00:00 15.3 18 Norte 41 Norte 0 -- -- 54
2019-04-20 01:00:00 15.1 16 Norte 43 Norte 0 -- -- 58
2019-04-20 00:00:00 15 22 Norte 42 Noroeste 0 -- -- 59
2019-04-19 23:00:00 15.2 14 Nordeste 33 Este 0 -- -- 61
2019-04-19 22:00:00 15.2 16 Nordeste 32 Este 0 -- -- 64
2019-04-19 21:00:00 15.9 13 Nordeste 32 Nordeste 0 -- -- 62
2019-04-19 20:00:00 16.9 18 Nordeste 36 Nordeste 0 -- -- 57
2019-04-19 19:00:00 17.5 21 Nordeste 40 Este 0 -- -- 56
2019-04-19 18:00:00 18.3 25 Nordeste 40 Nordeste 0 -- -- 53
2019-04-19 17:00:00 17.5 24 Este 48 Este 0 -- -- 62
2019-04-19 16:00:00 17.7 22 Este 53 Este 0 -- -- 57
2019-04-19 15:00:00 17.8 24 Este 40 Nordeste 0 -- -- 61
2019-04-19 14:00:00 19 21 Nordeste 43 Nordeste 0 -- -- 54
2019-04-19 13:00:00 17.3 23 Este 47 Este 0 -- -- 64
2019-04-19 12:00:00 18.1 20 Nordeste 40 Nordeste 0 -- -- 59
2019-04-19 11:00:00 16.6 14 Nordeste 31 Nordeste 0 -- -- 68
2019-04-19 10:00:00 15 13 Nordeste 27 Nordeste 0 -- -- 74
2019-04-19 09:00:00 14.5 13 Nordeste 29 Nordeste 0 -- -- 77
2019-04-19 08:00:00 14 13 Nordeste 39 Nordeste 0 -- -- 77
2019-04-19 07:00:00 14.1 14 Nordeste 35 Nordeste 0 -- -- 73
2019-04-19 06:00:00 14.5 17 Nordeste 33 Nordeste 0 -- -- 67
2019-04-19 05:00:00 14.7 11 Norte 28 Norte 0 -- -- 66
2019-04-19 04:00:00 14.8 15 Nordeste 29 Este 0 -- -- 66
2019-04-19 03:00:00 15 14 Nordeste 36 Este 0 -- -- 66
2019-04-19 02:00:00 14.8 18 Nordeste 32 Nordeste 0 -- -- 67
2019-04-19 01:00:00 14.6 16 Nordeste 31 Nordeste 0 -- -- 70
2019-04-19 00:00:00 14 10 Norte 31 Este 0 -- -- 75
2019-04-18 23:00:00 13.8 10 Norte 27 Norte 0 -- -- 78
2019-04-18 22:00:00 13.9 9 Norte 32 Norte 0 -- -- 79
2019-04-18 21:00:00 14.5 10 Norte 30 Nordeste 0 -- -- 76
2019-04-18 20:00:00 15.4 18 Nordeste 35 Nordeste 0 -- -- 72
2019-04-18 19:00:00 15.3 13 Este 37 Este 0 -- -- 78
2019-04-18 18:00:00 15.7 26 Este 36 Nordeste 0 -- -- 74
2019-04-18 17:00:00 16.6 21 Nordeste 37 Este 0 -- -- 69
2019-04-18 16:00:00 16.2 20 Este 35 Este 0 -- -- 75
2019-04-18 15:00:00 15.9 17 Este 33 Este 0 -- -- 75
2019-04-18 14:00:00 15.4 11 Este 36 Este 0 -- -- 80
2019-04-18 13:00:00 15.7 19 Este 35 Este 0 -- -- 79
2019-04-18 12:00:00 16.3 16 Este 28 Nordeste 0 -- -- 74
2019-04-18 11:00:00 15.9 12 Nordeste 22 Este 0 -- -- 71
2019-04-18 10:00:00 14.5 6 Norte 21 Norte 0 -- -- 81
2019-04-18 09:00:00 13.2 9 Norte 19 Noroeste 0 -- -- 86
2019-04-18 08:00:00 12.7 5 Norte 18 Norte 0 -- -- 88
2019-04-18 07:00:00 12.6 10 Nordeste 24 Norte 0 -- -- 87
2019-04-18 06:00:00 12.7 14 Norte 20 Nordeste 0 -- -- 87
2019-04-18 05:00:00 12.7 9 Norte 13 Norte 0 -- -- 89
2019-04-18 04:00:00 13.1 10 Nordeste 19 Nordeste 0 -- -- 90
2019-04-18 03:00:00 13.4 10 Nordeste 17 Nordeste 0 -- -- 91
2019-04-18 02:00:00 13.7 11 Este 17 Este 0 -- -- 92
2019-04-18 01:00:00 13.9 9 Este 13 Este 0 -- -- 92
2019-04-18 00:00:00 14.1 4 Este 8 Sudeste 0 -- -- 90
2019-04-17 23:00:00 14.1 3 Sudoeste 13 Sudeste 0 -- -- 91
2019-04-17 22:00:00 14.2 8 Sur 17 Sudeste 0 -- -- 91
2019-04-17 21:00:00 14.4 9 Sur 14 Sudeste 0 -- -- 90
2019-04-17 20:00:00 15.5 9 Sur 15 Sudeste 0 -- -- 84
2019-04-17 19:00:00 17.1 7 Sur 13 Sudeste 0 -- -- 77
2019-04-17 18:00:00 19.1 9 Sur 16 Sur 0 -- -- 70
2019-04-17 17:00:00 18.7 10 Sur 16 Sudeste 0 -- -- 71
2019-04-17 16:00:00 18.2 9 Sur 14 Sur 0 -- -- 71
2019-04-17 15:00:00 18.7 8 Sur 13 Sur 0 -- -- 70
2019-04-17 14:00:00 18.7 9 Sur 13 Sur 0 -- -- 67
2019-04-17 13:00:00 18.1 7 Sur 13 Sur 0 -- -- 70
2019-04-17 12:00:00 17.2 6 Sur 10 Sur 0 -- -- 73
2019-04-17 11:00:00 15.7 5 Sur 8 Sudeste 0 -- -- 81
2019-04-17 10:00:00 13.9 4 Sudeste 6 Nordeste 0 -- -- 87
2019-04-17 09:00:00 12.9 4 Este 7 Este 0 -- -- 96
2019-04-17 08:00:00 11 3 Nordeste 6 Nordeste 0 -- -- 97
2019-04-17 07:00:00 10.3 0 Calma 4 Norte 0 -- -- 95
2019-04-17 06:00:00 10.6 0 Calma 5 Noroeste 0 -- -- 94
2019-04-17 05:00:00 11 5 Norte 10 Noroeste 0 -- -- 92
2019-04-17 04:00:00 11.2 7 Noroeste 12 Noroeste 0 -- -- 93
2019-04-17 03:00:00 11 3 Oeste 6 Noroeste 0 -- -- 93
2019-04-17 02:00:00 11.2 5 Norte 6 Norte 0 -- -- 93
2019-04-17 01:00:00 11.6 3 Noroeste 9 Noroeste 0 -- -- 92
2019-04-17 00:00:00 12.2 6 Noroeste 8 Noroeste 0 -- -- 91
2019-04-16 23:00:00 12.8 4 Nordeste 18 Este 0 -- -- 89
2019-04-16 22:00:00 13.1 11 Este 19 Este 0 -- -- 88
2019-04-16 21:00:00 13.2 7 Este 16 Este 0 -- -- 86
2019-04-16 20:00:00 13.5 9 Este 19 Este 0 -- -- 85
2019-04-16 19:00:00 13.9 10 Este 24 Este 0 -- -- 84
2019-04-16 18:00:00 14.5 7 Este 24 Este 0 -- -- 82
2019-04-16 17:00:00 17 8 Este 17 Este 0 -- -- 70
2019-04-16 16:00:00 18.2 5 Sudeste 12 Sudeste 0 -- -- 67
2019-04-16 15:00:00 15.3 6 Este 12 Este 0 -- -- 78
2019-04-16 14:00:00 14.6 7 Este 12 Este 0 -- -- 80
2019-04-16 13:00:00 14.9 4 Sudeste 10 Sudeste 0 -- -- 79
2019-04-16 12:00:00 15.3 5 Este 11 Sudeste 0 -- -- 77
2019-04-16 11:00:00 16.2 4 Sudeste 14 Este 0 -- -- 77
2019-04-16 10:00:00 14.4 6 Norte 18 Norte 0 -- -- 81
2019-04-16 09:00:00 11.7 15 Norte 23 Norte 0 -- -- 83
2019-04-16 08:00:00 11 15 Norte 23 Norte 0 -- -- 83
2019-04-16 07:00:00 11.1 11 Norte 24 Norte 0 -- -- 88
2019-04-16 06:00:00 10.7 17 Norte 26 Norte 0 -- -- 88
2019-04-16 05:00:00 10.8 14 Norte 19 Norte 0 -- -- 89
2019-04-16 04:00:00 10.9 8 Noroeste 13 Noroeste 0 -- -- 89
2019-04-16 03:00:00 11.3 9 Norte 15 Norte 0.2 -- -- 87
2019-04-16 02:00:00 12.3 10 Norte 15 Noroeste 0 -- -- 78
2019-04-16 01:00:00 12 11 Noroeste 15 Noroeste 0 -- -- 76
2019-04-16 00:00:00 11.7 4 Noroeste 5 Oeste 0 -- -- 79
2019-04-15 23:00:00 12.2 2 Sudoeste 4 Este 0 -- -- 76
2019-04-15 22:00:00 12.4 0 Calma 9 Sudeste 0 -- -- 74
2019-04-15 21:00:00 12.8 5 Sur 12 Este 0 -- -- 67
2019-04-15 20:00:00 13.9 5 Sudeste 14 Sur 0 -- -- 58
2019-04-15 19:00:00 14.7 5 Sur 12 Sur 0 -- -- 54
2019-04-15 18:00:00 15.7 7 Sur 13 Sur 0 -- -- 51
2019-04-15 17:00:00 16.6 8 Sur 13 Sur 0 -- -- 52
2019-04-15 16:00:00 16.9 8 Sur 15 Sudeste 0 -- -- 56
2019-04-15 15:00:00 18.1 10 Sur 18 Sudeste 0 -- -- 54
2019-04-15 14:00:00 17.5 11 Sur 19 Sudeste 0 -- -- 54
2019-04-15 13:00:00 16.7 7 Sudeste 22 Sudeste 0 -- -- 56
2019-04-15 12:00:00 16.1 8 Este 18 Sudeste 0 -- -- 55
2019-04-15 11:00:00 15.4 6 Este 14 Este 0 -- -- 56
2019-04-15 10:00:00 13.8 5 Sudeste 14 Norte 0 -- -- 59
2019-04-15 09:00:00 11.4 10 Norte 16 Norte 0 -- -- 65
2019-04-15 08:00:00 10.1 12 Norte 15 Norte 0 -- -- 68
2019-04-15 07:00:00 10.1 12 Norte 17 Norte 0 -- -- 66
2019-04-15 06:00:00 10.6 10 Norte 19 Norte 0 -- -- 65
2019-04-15 05:00:00 11.1 10 Nordeste 16 Nordeste 0 -- -- 64
2019-04-15 04:00:00 11.6 5 Nordeste 22 Norte 0 -- -- 62
2019-04-15 03:00:00 11.8 12 Norte 19 Noroeste 0 -- -- 63
2019-04-15 02:00:00 11.9 14 Noroeste 21 Noroeste 0 -- -- 64
2019-04-15 01:00:00 11.8 3 Oeste 17 Norte 0 -- -- 63
2019-04-15 00:00:00 11.8 9 Norte 16 Nordeste 0 -- -- 73
2019-04-14 23:00:00 11.7 5 Noroeste 11 Nordeste 0 -- -- 81
2019-04-14 22:00:00 11.6 4 Sudoeste 6 Noroeste 0 -- -- 80
2019-04-14 21:00:00 12.3 0 Calma 4 Este 0 -- -- 76
2019-04-14 20:00:00 13.4 2 Este 6 Este 0 -- -- 71
2019-04-14 19:00:00 14 3 Sudeste 9 Sudeste 0 -- -- 69
2019-04-14 18:00:00 14.6 6 Sudeste 11 Sudeste 0 -- -- 66
2019-04-14 17:00:00 16.1 6 Sudeste 17 Sudeste 0 -- -- 60
2019-04-14 16:00:00 15.6 8 Este 19 Sudeste 0 -- -- 61
2019-04-14 15:00:00 15.1 9 Este 24 Nordeste 0 -- -- 63
2019-04-14 14:00:00 14.4 13 Este 27 Este 0 -- -- 64
2019-04-14 13:00:00 14.9 15 Este 24 Este 0 -- -- 65
2019-04-14 12:00:00 15.1 13 Este 27 Este 0 -- -- 68
2019-04-14 11:00:00 14.1 19 Este 25 Este 0 -- -- 74
2019-04-14 10:00:00 13.3 4 Sur 12 Nordeste 0 -- -- 78
2019-04-14 09:00:00 12.9 9 Nordeste 16 Norte 0 -- -- 82
2019-04-14 08:00:00 10.8 9 Norte 15 Norte 0 -- -- 79
2019-04-14 07:00:00 10.3 5 Norte 13 Norte 0 -- -- 88
2019-04-14 06:00:00 10.2 8 Norte 11 Norte 0 -- -- 87
2019-04-14 05:00:00 10.4 5 Noroeste 11 Noroeste 0 -- -- 85
2019-04-14 04:00:00 11.3 8 Noroeste 12 Noroeste 0 -- -- 82
2019-04-14 03:00:00 11.8 9 Noroeste 16 Oeste 0 -- -- 76
2019-04-14 02:00:00 12.5 8 Noroeste 15 Noroeste 0 -- -- 69
2019-04-14 01:00:00 12.4 9 Noroeste 14 Noroeste 0 -- -- 67
2019-04-14 00:00:00 12.9 9 Noroeste 13 Noroeste 0 -- -- 60
2019-04-13 23:00:00 12.5 6 Sudoeste 12 Sudoeste 0 -- -- 63
2019-04-13 22:00:00 13.1 5 Oeste 16 Sudoeste 0 -- -- 70
2019-04-13 21:00:00 13.5 9 Sudoeste 23 Sur 0 -- -- 83
2019-04-13 20:00:00 14.5 12 Sur 25 Sudoeste 0 -- -- 79
2019-04-13 19:00:00 16.1 14 Sur 22 Sudoeste 0 -- -- 74
2019-04-13 18:00:00 18.1 9 Sur 18 Sur 0 -- -- 70
2019-04-13 17:00:00 18.9 8 Sur 15 Sur 0 -- -- 66
2019-04-13 16:00:00 19.1 9 Sur 15 Sudeste 0 -- -- 67
2019-04-13 15:00:00 19.2 10 Sur 15 Sudeste 0 -- -- 66
2019-04-13 14:00:00 18.8 9 Sudeste 14 Sudeste 0 -- -- 66
2019-04-13 13:00:00 18.7 6 Sudeste 12 Sudeste 0 -- -- 62
2019-04-13 12:00:00 17.8 6 Sudeste 12 Sudeste 0 -- -- 65
2019-04-13 11:00:00 15.2 5 Sudeste 11 Sudeste 0 -- -- 71
2019-04-13 10:00:00 14.6 5 Este 9 Este 0 -- -- 68
2019-04-13 09:00:00 12 4 Este 9 Norte 0 -- -- 76
2019-04-13 08:00:00 9.2 6 Noroeste 16 Noroeste 0 -- -- 83
2019-04-13 07:00:00 10.4 11 Noroeste 15 Noroeste 0 -- -- 78
2019-04-13 06:00:00 10.2 6 Noroeste 21 Noroeste 0 -- -- 83
2019-04-13 05:00:00 10.4 12 Noroeste 18 Noroeste 0 -- -- 83
2019-04-13 04:00:00 10.5 3 Norte 11 Norte 0 -- -- 82
2019-04-13 03:00:00 11.2 6 Oeste 13 Oeste 0 -- -- 80
2019-04-13 02:00:00 11.8 9 Noroeste 18 Oeste 0 -- -- 80
2019-04-13 01:00:00 12.4 10 Noroeste 19 Oeste 0 -- -- 81
2019-04-13 00:00:00 12.9 8 Oeste 18 Oeste 0 -- -- 78
2019-04-12 23:00:00 12.9 6 Oeste 12 Oeste 0 -- -- 76
2019-04-12 22:00:00 13.1 7 Oeste 19 Sudoeste 0 -- -- 75
2019-04-12 21:00:00 13.4 10 Sudoeste 24 Sudoeste 0 -- -- 74
2019-04-12 20:00:00 13.9 8 Sudoeste 25 Sur 0 -- -- 70
2019-04-12 19:00:00 15.3 14 Sur 32 Sur 0 -- -- 63
2019-04-12 18:00:00 17 15 Sudoeste 32 Sur 0 -- -- 59
2019-04-12 17:00:00 18.6 18 Sur 30 Sur 0 -- -- 54
2019-04-12 16:00:00 19.8 8 Sur 25 Sur 0 -- -- 55
2019-04-12 15:00:00 18.6 7 Sur 13 Sur 0 -- -- 53
2019-04-12 14:00:00 18.9 8 Sur 13 Sur 0 -- -- 50
2019-04-12 13:00:00 19.4 10 Sur 14 Sur 0 -- -- 53
2019-04-12 12:00:00 17.8 7 Sur 11 Sur 0 -- -- 59
2019-04-12 11:00:00 16.6 6 Sudeste 10 Sudeste 0 -- -- 57
2019-04-12 10:00:00 13.9 4 Nordeste 12 Noroeste 0 -- -- 60
2019-04-12 09:00:00 12.5 9 Noroeste 15 Noroeste 0 -- -- 61
2019-04-12 08:00:00 11.8 13 Noroeste 17 Noroeste 0 -- -- 63
2019-04-12 07:00:00 12 8 Noroeste 14 Noroeste 0 -- -- 61
2019-04-12 06:00:00 12.5 3 Noroeste 9 Norte 0 -- -- 61
2019-04-12 05:00:00 12.8 5 Norte 13 Norte 0 -- -- 57
2019-04-12 04:00:00 13 8 Norte 14 Noroeste 0 -- -- 53
2019-04-12 03:00:00 13.3 6 Norte 20 Noroeste 0 -- -- 54
2019-04-12 02:00:00 13.2 12 Noroeste 21 Noroeste 0 -- -- 58
2019-04-12 01:00:00 13.4 10 Noroeste 21 Noroeste 0 -- -- 60
2019-04-12 00:00:00 13 10 Noroeste 20 Noroeste 0 -- -- 67
2019-04-11 23:00:00 13.2 5 Noroeste 15 Noroeste 0 -- -- 68
2019-04-11 22:00:00 13.5 9 Noroeste 14 Noroeste 0 -- -- 60
2019-04-11 21:00:00 13.1 3 Noroeste 8 Oeste 0 -- -- 76
2019-04-11 20:00:00 13.8 2 Norte 4 Nordeste 0 -- -- 75
2019-04-11 19:00:00 14.4 2 Sudeste 8 Sudoeste 0 -- -- 70
2019-04-11 18:00:00 14.7 0 Calma 6 Sudoeste 0 -- -- 65
2019-04-11 17:00:00 15 3 Sudeste 11 Sur 0 -- -- 67
2019-04-11 16:00:00 15.7 8 Sur 16 Sudoeste 0 -- -- 68
2019-04-11 15:00:00 16 8 Sur 23 Sudoeste 0 -- -- 70
2019-04-11 14:00:00 16.6 14 Sur 23 Sur 0 -- -- 68
2019-04-11 13:00:00 15.8 14 Sudoeste 26 Sudoeste 0 -- -- 67
2019-04-11 12:00:00 16.1 9 Sudoeste 20 Sudoeste 0 -- -- 62
2019-04-11 11:00:00 17.7 7 Sur 12 Sur 0 -- -- 50
2019-04-11 10:00:00 15.5 4 Sudoeste 11 Este 0 -- -- 54
2019-04-11 09:00:00 12.7 7 Norte 18 Noroeste 0 -- -- 61
2019-04-11 08:00:00 11.5 7 Noroeste 23 Noroeste 0 -- -- 64
2019-04-11 07:00:00 11.3 8 Noroeste 15 Noroeste 0 -- -- 65
2019-04-11 06:00:00 11.7 8 Noroeste 20 Noroeste 0 -- -- 62
2019-04-11 05:00:00 12.1 3 Norte 12 Noroeste 0 -- -- 60
2019-04-11 04:00:00 12.2 8 Norte 20 Noroeste 0 -- -- 62
2019-04-11 03:00:00 13.3 10 Noroeste 22 Oeste 0 -- -- 56
2019-04-11 02:00:00 13.4 14 Noroeste 25 Oeste 0 -- -- 57
2019-04-11 01:00:00 12.9 15 Noroeste 29 Noroeste 0 -- -- 60
2019-04-11 00:00:00 12.7 17 Noroeste 27 Noroeste 0 -- -- 61
2019-04-10 23:00:00 13.3 12 Noroeste 25 Norte 0 -- -- 59
2019-04-10 22:00:00 13.6 12 Noroeste 28 Noroeste 0 -- -- 58
2019-04-10 21:00:00 13.5 6 Noroeste 14 Norte 0 -- -- 61
2019-04-10 20:00:00 14.5 7 Oeste 27 Sudoeste 0 -- -- 56
2019-04-10 19:00:00 15.8 12 Sudoeste 30 Oeste 0 -- -- 53
2019-04-10 18:00:00 15.6 14 Oeste 36 Oeste 0 -- -- 56
2019-04-10 17:00:00 15.3 13 Oeste 32 Sudoeste 0 -- -- 61
2019-04-10 16:00:00 16.9 10 Sur 29 Sudoeste 0 -- -- 57
2019-04-10 15:00:00 14.8 5 Sudeste 41 Sudoeste 0.2 -- -- 65
2019-04-10 14:00:00 15.4 10 Oeste 15 Oeste 0 -- -- 73
2019-04-10 13:00:00 17.5 6 Sur 17 Sur 0 -- -- 66
2019-04-10 12:00:00 16.9 10 Sudoeste 17 Sudoeste 0 -- -- 59
2019-04-10 11:00:00 15.4 7 Noroeste 19 Noroeste 0 -- -- 57
2019-04-10 10:00:00 13 10 Norte 26 Noroeste 0 -- -- 67
2019-04-10 09:00:00 10.9 19 Noroeste 35 Noroeste 0 -- -- 67
2019-04-10 08:00:00 10.6 21 Noroeste 30 Noroeste 0 -- -- 67
2019-04-10 07:00:00 9.7 18 Noroeste 28 Noroeste 0 -- -- 75
2019-04-10 06:00:00 9.6 17 Noroeste 30 Noroeste 0 -- -- 79
2019-04-10 05:00:00 9.4 19 Noroeste 30 Noroeste 0 -- -- 83
2019-04-10 04:00:00 10.5 9 Noroeste 26 Noroeste 0 -- -- 74
2019-04-10 03:00:00 11.5 11 Noroeste 17 Noroeste 0 -- -- 70
2019-04-10 02:00:00 11.9 13 Noroeste 25 Noroeste 0 -- -- 67
2019-04-10 01:00:00 11.4 17 Noroeste 23 Noroeste 0 -- -- 72
2019-04-10 00:00:00 10.8 11 Noroeste 27 Noroeste 0 -- -- 78
2019-04-09 23:00:00 10 19 Noroeste 29 Noroeste 0 -- -- 86
2019-04-09 22:00:00 9.6 17 Noroeste 24 Noroeste 0 -- -- 88
2019-04-09 21:00:00 10 10 Oeste 28 Oeste 0 -- -- 88
2019-04-09 20:00:00 9.5 12 Noroeste 26 Oeste 0.6 -- -- 93
2019-04-09 19:00:00 9.9 12 Norte 30 Noroeste 3.6 -- -- 90
2019-04-09 18:00:00 11.9 13 Oeste 31 Oeste 0.4 -- -- 82
2019-04-09 17:00:00 14.1 5 Sur 11 Sur 0 -- -- 84
2019-04-09 16:00:00 13.9 4 Sur 9 Sur 0 -- -- 88
2019-04-09 15:00:00 12.2 2 Sudeste 12 Sur 2 -- -- 93
2019-04-09 14:00:00 12.3 6 Sur 19 Este 5.8 -- -- 92
2019-04-09 13:00:00 13.4 9 Este 20 Este 0 -- -- 81
2019-04-09 12:00:00 14.3 12 Este 19 Este 0 -- -- 80
2019-04-09 11:00:00 13 3 Sudeste 10 Noroeste 0 -- -- 89
2019-04-09 10:00:00 11.8 7 Noroeste 11 Noroeste 0 -- -- 93
2019-04-09 09:00:00 10.5 6 Norte 25 Norte 2 -- -- 94
2019-04-09 08:00:00 11.3 8 Oeste 21 Oeste 2.2 -- -- 89
2019-04-09 07:00:00 11.9 10 Norte 18 Norte 0 -- -- 83
2019-04-09 06:00:00 11.6 13 Norte 18 Norte 0 -- -- 83
2019-04-09 05:00:00 11.4 11 Norte 16 Norte 0 -- -- 83
2019-04-09 04:00:00 11.7 9 Norte 23 Norte 0 -- -- 84
2019-04-09 03:00:00 12 17 Norte 23 Norte 0 -- -- 80
2019-04-09 02:00:00 12.1 10 Norte 17 Norte 0 -- -- 81
2019-04-09 01:00:00 12.8 10 Noroeste 18 Norte 0 -- -- 82
2019-04-09 00:00:00 12.9 12 Norte 19 Norte 0 -- -- 83
2019-04-08 23:00:00 13 3 Nordeste 8 Este 0 -- -- 87
2019-04-08 22:00:00 13.3 5 Este 9 Nordeste 0 -- -- 83
2019-04-08 21:00:00 13.7 3 Nordeste 6 Este 0 -- -- 85
2019-04-08 20:00:00 14.7 3 Sur 10 Sudeste 0 -- -- 78
2019-04-08 19:00:00 16.5 5 Sur 11 Sur 0 -- -- 70
2019-04-08 18:00:00 17.3 7 Sur 13 Sur 0 -- -- 68
2019-04-08 17:00:00 17.8 6 Sur 25 Sudoeste 0 -- -- 66
2019-04-08 16:00:00 19.2 12 Sur 21 Sur 0 -- -- 60
2019-04-08 15:00:00 19 9 Sur 23 Sur 0 -- -- 65
2019-04-08 14:00:00 17.6 16 Sur 26 Sur 0 -- -- 67
2019-04-08 13:00:00 17.5 12 Sur 25 Sudoeste 0 -- -- 64
2019-04-08 12:00:00 16 11 Sur 18 Sur 0 -- -- 63
2019-04-08 11:00:00 13.9 5 Sudeste 12 Sudoeste 0 -- -- 69
2019-04-08 10:00:00 12.6 4 Sur 10 Sudoeste 0 -- -- 71
2019-04-08 09:00:00 10.4 0 Calma 11 Noroeste 0 -- -- 72
2019-04-08 08:00:00 9.1 6 Noroeste 8 Noroeste 0 -- -- 77
2019-04-08 07:00:00 9.1 0 Calma 12 Noroeste 0 -- -- 81
2019-04-08 06:00:00 10 2 Noroeste 19 Oeste 0 -- -- 81
2019-04-08 05:00:00 10.1 6 Oeste 17 Oeste 0 -- -- 80
2019-04-08 04:00:00 10.1 6 Oeste 15 Oeste 0 -- -- 77
2019-04-08 03:00:00 9.8 7 Oeste 17 Norte 0 -- -- 73
2019-04-08 02:00:00 10.6 7 Oeste 22 Oeste 0 -- -- 69
2019-04-08 01:00:00 9.6 10 Noroeste 17 Noroeste 0 -- -- 79
2019-04-08 00:00:00 10.5 12 Noroeste 21 Noroeste 0 -- -- 73
2019-04-07 23:00:00 10.4 11 Oeste 20 Noroeste 0 -- -- 75
2019-04-07 22:00:00 10.8 14 Noroeste 22 Noroeste 0 -- -- 76
2019-04-07 21:00:00 11.1 12 Noroeste 22 Oeste 0 -- -- 79
2019-04-07 20:00:00 11.7 7 Oeste 18 Noroeste 0 -- -- 77
2019-04-07 19:00:00 11.2 12 Noroeste 20 Noroeste 0.2 -- -- 86
2019-04-07 18:00:00 9.8 9 Oeste 26 Noroeste 1.2 -- -- 88
2019-04-07 17:00:00 9.7 19 Noroeste 51 Oeste 0.6 -- -- 81
2019-04-07 16:00:00 10.1 23 Oeste 69 Noroeste 0 -- -- 73
2019-04-07 15:00:00 14.8 17 Este 34 Este 0 -- -- 67
2019-04-07 14:00:00 16.4 12 Sur 27 Nordeste 0 -- -- 65
2019-04-07 13:00:00 16.3 14 Nordeste 31 Nordeste 0 -- -- 44
2019-04-07 12:00:00 16.1 11 Nordeste 33 Nordeste 0 -- -- 48
2019-04-07 11:00:00 13.9 8 Nordeste 25 Norte 0 -- -- 57
2019-04-07 10:00:00 10.8 13 Norte 29 Noroeste 0 -- -- 66
2019-04-07 09:00:00 9.6 15 Noroeste 28 Norte 0 -- -- 68
2019-04-07 08:00:00 8.9 17 Norte 26 Norte 0 -- -- 66
2019-04-07 07:00:00 8.7 8 Norte 17 Nordeste 0 -- -- 65
2019-04-07 06:00:00 8.8 6 Norte 22 Noroeste 0 -- -- 63
2019-04-07 05:00:00 9.5 14 Norte 23 Noroeste 0 -- -- 60
2019-04-07 04:00:00 10 14 Noroeste 20 Noroeste 0 -- -- 68
2019-04-07 03:00:00 10.4 3 Noroeste 12 Noroeste 0 -- -- 76
2019-04-07 02:00:00 11.3 10 Noroeste 13 Noroeste 0 -- -- 70
2019-04-07 01:00:00 11.3 10 Noroeste 18 Oeste 0 -- -- 67
2019-04-07 00:00:00 11.5 10 Oeste 17 Oeste 0 -- -- 62
2019-04-06 23:00:00 11.3 6 Sudoeste 13 Sudoeste 0 -- -- 67
2019-04-06 22:00:00 12.4 4 Oeste 30 Sudoeste 0 -- -- 67
2019-04-06 21:00:00 12.7 15 Sudoeste 50 Sudoeste 0 -- -- 71
2019-04-06 20:00:00 12.9 23 Sur 46 Sur 0 -- -- 66
2019-04-06 19:00:00 13.6 31 Sur 49 Sudoeste 0 -- -- 56
2019-04-06 18:00:00 14.3 28 Sur 53 Sudoeste 0 -- -- 62
2019-04-06 17:00:00 14.9 32 Sur 57 Sudoeste 0 -- -- 61
2019-04-06 16:00:00 14.7 28 Sur 50 Sudoeste 0 -- -- 63
2019-04-06 15:00:00 16.3 15 Sur 41 Sur 0 -- -- 61
2019-04-06 14:00:00 16.6 23 Sur 41 Sudoeste 0 -- -- 56
2019-04-06 13:00:00 15.3 20 Oeste 43 Sudoeste 0 -- -- 47
2019-04-06 12:00:00 13.8 21 Oeste 47 Oeste 0 -- -- 54
2019-04-06 11:00:00 12.6 22 Oeste 44 Oeste 0 -- -- 57
2019-04-06 10:00:00 11.7 14 Sudoeste 36 Sudoeste 0 -- -- 70
2019-04-06 09:00:00 11 10 Sudoeste 22 Sudoeste 0 -- -- 76
2019-04-06 08:00:00 9.8 4 Oeste 16 Oeste 0 -- -- 78
2019-04-06 07:00:00 10.2 5 Oeste 15 Oeste 0 -- -- 80
2019-04-06 06:00:00 10.6 6 Oeste 21 Oeste 0 -- -- 82
2019-04-06 05:00:00 10.8 12 Oeste 26 Oeste 0 -- -- 89
2019-04-06 04:00:00 10.6 11 Oeste 22 Sudoeste 0 -- -- 94
2019-04-06 03:00:00 11.3 11 Sudoeste 40 Sudoeste 0 -- -- 95
2019-04-06 02:00:00 12 9 Sudoeste 30 Sudoeste 2 -- -- 95
2019-04-06 01:00:00 13.1 13 Sur 27 Sudeste 0.2 -- -- 96
2019-04-06 00:00:00 12.8 12 Sur 30 Sudeste 0 -- -- 94
2019-04-05 23:00:00 12.9 18 Sudeste 31 Sur 0 -- -- 92
2019-04-05 22:00:00 13.5 10 Sur 21 Sur 0 -- -- 88
2019-04-05 21:00:00 13.7 10 Sur 19 Sur 0 -- -- 85
2019-04-05 20:00:00 13.8 12 Sur 22 Sudeste 0 -- -- 76
2019-04-05 19:00:00 14.3 13 Sur 22 Sur 0 -- -- 71
2019-04-05 18:00:00 15.6 11 Sur 27 Sudoeste 0 -- -- 75
2019-04-05 17:00:00 16.6 14 Sur 37 Sudoeste 0 -- -- 71
2019-04-05 16:00:00 16.1 13 Sur 28 Sudoeste 0 -- -- 73
2019-04-05 15:00:00 15.8 14 Sur 36 Sudoeste 0 -- -- 72
2019-04-05 14:00:00 14.7 17 Sur 35 Sudoeste 0 -- -- 72
2019-04-05 13:00:00 16.6 14 Sur 23 Sur 0 -- -- 64
2019-04-05 12:00:00 16.2 13 Sur 25 Sudoeste 0 -- -- 64
2019-04-05 11:00:00 15 17 Sur 28 Sur 0 -- -- 66
2019-04-05 10:00:00 14 14 Sur 28 Sudoeste 0 -- -- 66
2019-04-05 09:00:00 11.9 6 Sur 15 Sudoeste 0 -- -- 69
2019-04-05 08:00:00 10.6 7 Noroeste 23 Oeste 0 -- -- 67
2019-04-05 07:00:00 10.7 14 Oeste 27 Oeste 0 -- -- 65
2019-04-05 06:00:00 10.3 11 Oeste 24 Oeste 0 -- -- 66
2019-04-05 05:00:00 9.3 6 Noroeste 15 Oeste 0 -- -- 67
2019-04-05 04:00:00 8.4 3 Noroeste 13 Oeste 0 -- -- 68
2019-04-05 03:00:00 9.4 8 Noroeste 18 Oeste 0 -- -- 66
2019-04-05 02:00:00 7.6 13 Noroeste 29 Noroeste 0 -- -- 74
2019-04-05 01:00:00 8.9 10 Noroeste 13 Noroeste 0 -- -- 70
2019-04-05 00:00:00 9 5 Noroeste 9 Sudoeste 0 -- -- 72
2019-04-04 23:00:00 8.9 6 Oeste 13 Oeste 0 -- -- 70
2019-04-04 22:00:00 9 6 Sur 16 Sur 0 -- -- 70
2019-04-04 21:00:00 9.3 6 Sur 15 Sudoeste 0 -- -- 68
2019-04-04 20:00:00 10.7 7 Sur 15 Sur 0 -- -- 62
2019-04-04 19:00:00 12.9 7 Sur 19 Sur 0 -- -- 55
2019-04-04 18:00:00 14 12 Sur 19 Sudoeste 0 -- -- 52
2019-04-04 17:00:00 15 12 Sur 23 Sur 0 -- -- 53
2019-04-04 16:00:00 15 13 Sur 22 Sudeste 0 -- -- 55
2019-04-04 15:00:00 14.4 10 Sur 21 Sudeste 0 -- -- 56
2019-04-04 14:00:00 14.6 10 Sur 21 Sudeste 0 -- -- 58
2019-04-04 13:00:00 14.5 12 Sur 18 Sudeste 0 -- -- 54
2019-04-04 12:00:00 13.4 9 Sur 15 Sur 0 -- -- 55
2019-04-04 11:00:00 10.2 8 Noroeste 21 Noroeste 0 -- -- 52
2019-04-04 10:00:00 8.1 10 Norte 24 Noroeste 0 -- -- 73
2019-04-04 09:00:00 6.4 15 Noroeste 28 Noroeste 0 -- -- 76
2019-04-04 08:00:00 5.7 18 Noroeste 25 Noroeste 0 -- -- 80
2019-04-04 07:00:00 6.1 12 Noroeste 20 Oeste 0 -- -- 80
2019-04-04 06:00:00 6.1 12 Noroeste 16 Noroeste 0 -- -- 82
2019-04-04 05:00:00 6.2 13 Noroeste 19 Oeste 0 -- -- 85
2019-04-04 04:00:00 6.2 10 Noroeste 17 Noroeste 0 -- -- 90
2019-04-04 03:00:00 6.3 10 Noroeste 18 Noroeste 0.2 -- -- 93
2019-04-04 02:00:00 6.3 9 Noroeste 16 Noroeste 0 -- -- 93
2019-04-04 01:00:00 6.3 5 Nordeste 20 Este 0 -- -- 92
2019-04-04 00:00:00 6.5 8 Norte 17 Nordeste 1 -- -- 94
2019-04-03 23:00:00 6.7 6 Norte 29 Norte 1.6 -- -- 94
2019-04-03 22:00:00 7.1 13 Nordeste 31 Nordeste 1.8 -- -- 94
2019-04-03 21:00:00 8 13 Noroeste 21 Oeste 3.2 -- -- 94
2019-04-03 20:00:00 9.9 3 Sudeste 20 Nordeste 4.4 -- -- 95
2019-04-03 19:00:00 10.7 10 Nordeste 39 Este 3 -- -- 94
2019-04-03 18:00:00 11.4 26 Este 45 Este 0 -- -- 90
2019-04-03 17:00:00 16.1 6 Sudeste 14 Este 0 -- -- 81
2019-04-03 16:00:00 16.6 8 Sur 26 Sur 0 -- -- 81
2019-04-03 15:00:00 19 14 Sur 31 Sudoeste 0 -- -- 74
2019-04-03 14:00:00 17.2 8 Sur 19 Sur 0 -- -- 86
2019-04-03 13:00:00 17.2 9 Sur 24 Sudeste 0 -- -- 82
2019-04-03 12:00:00 16 11 Sur 21 Sudeste 0 -- -- 89
2019-04-03 11:00:00 14.1 8 Sudoeste 21 Sur 0 -- -- 92
2019-04-03 10:00:00 13.2 2 Sudeste 7 Oeste 0 -- -- 93
2019-04-03 09:00:00 12.4 4 Sudoeste 14 Oeste 0 -- -- 94
2019-04-03 08:00:00 11.9 5 Oeste 13 Sudoeste 0 -- -- 93
2019-04-03 07:00:00 11.1 5 Oeste 8 Norte 0 -- -- 92
2019-04-03 06:00:00 11.2 3 Norte 5 Sudeste 0 -- -- 91
2019-04-03 05:00:00 11.3 4 Noroeste 13 Noroeste 0 -- -- 88
2019-04-03 04:00:00 11.2 6 Noroeste 12 Noroeste 0 -- -- 87
2019-04-03 03:00:00 11.3 9 Noroeste 14 Noroeste 0 -- -- 87
2019-04-03 02:00:00 11.4 7 Noroeste 14 Noroeste 0 -- -- 88
2019-04-03 01:00:00 11.4 6 Noroeste 12 Norte 0 -- -- 89
2019-04-03 00:00:00 11.5 10 Norte 22 Noroeste 0 -- -- 91
2019-04-02 23:00:00 11 13 Norte 19 Norte 0 -- -- 93
2019-04-02 22:00:00 12.1 5 Noroeste 18 Norte 0.2 -- -- 90
2019-04-02 21:00:00 13 10 Noroeste 15 Noroeste 1.2 -- -- 91
2019-04-02 20:00:00 14.1 7 Este 11 Este 0.2 -- -- 88
2019-04-02 19:00:00 15.2 3 Este 13 Sudoeste 0 -- -- 81
2019-04-02 18:00:00 16.9 8 Sur 14 Sur 0 -- -- 75
2019-04-02 17:00:00 17.3 9 Sur 24 Sudoeste 0 -- -- 73
2019-04-02 16:00:00 17.6 12 Sur 30 Sudoeste 0 -- -- 71
2019-04-02 15:00:00 18.3 16 Sur 27 Sudoeste 0 -- -- 70
2019-04-02 14:00:00 19.9 10 Sur 21 Sudoeste 0 -- -- 65
2019-04-02 13:00:00 17.4 10 Sur 18 Sur 0 -- -- 73
2019-04-02 12:00:00 18.3 8 Sur 14 Sur 0 -- -- 64
2019-04-02 11:00:00 16.4 6 Sur 10 Sudoeste 0 -- -- 57
2019-04-02 10:00:00 13.6 4 Norte 10 Noroeste 0 -- -- 66
2019-04-02 09:00:00 11.5 0 Calma 5 Sudoeste 0 -- -- 82
2019-04-02 08:00:00 10.4 0 Calma 4 Nordeste 0 -- -- 82
2019-04-02 07:00:00 10.1 0 Calma 8 Sudoeste 0 -- -- 79
2019-04-02 06:00:00 10.5 4 Oeste 9 Oeste 0 -- -- 77
2019-04-02 05:00:00 10.4 3 Sur 6 Oeste 0 -- -- 77
2019-04-02 04:00:00 10.5 3 Oeste 9 Oeste 0 -- -- 77
2019-04-02 03:00:00 10.7 3 Sudoeste 13 Sudoeste 0 -- -- 86
2019-04-02 02:00:00 10.9 6 Sudoeste 11 Oeste 0 -- -- 84
2019-04-02 01:00:00 11.2 4 Sudoeste 10 Sudoeste 0 -- -- 81
2019-04-02 00:00:00 11.5 5 Sudoeste 11 Oeste 0 -- -- 81
2019-04-01 23:00:00 12 6 Sudoeste 17 Sudoeste 0 -- -- 80
2019-04-01 22:00:00 12.4 5 Sudoeste 20 Sudoeste 0 -- -- 85
2019-04-01 21:00:00 12.5 8 Sur 18 Sudoeste 0 -- -- 85
2019-04-01 20:00:00 14.1 6 Sur 10 Sudoeste 0 -- -- 77
2019-04-01 19:00:00 16 6 Sur 11 Sudeste 0 -- -- 70
2019-04-01 18:00:00 17 8 Sur 14 Sudeste 0 -- -- 68
2019-04-01 17:00:00 17.5 9 Sudeste 15 Sudeste 0 -- -- 66
2019-04-01 16:00:00 18.7 10 Sur 15 Sur 0 -- -- 61
2019-04-01 15:00:00 19.1 7 Sudeste 13 Sudeste 0 -- -- 61
2019-04-01 14:00:00 18.6 9 Sudeste 14 Sudeste 0 -- -- 65
2019-04-01 13:00:00 17.1 7 Sudeste 12 Sudeste 0 -- -- 67
2019-04-01 12:00:00 16.3 5 Sudeste 10 Este 0 -- -- 71
2019-04-01 11:00:00 15.5 6 Sudeste 8 Sudeste 0 -- -- 65
2019-04-01 10:00:00 14.6 5 Este 8 Nordeste 0 -- -- 71
2019-04-01 09:00:00 12.8 3 Este 15 Norte 0 -- -- 69
2019-04-01 08:00:00 10.8 8 Norte 11 Norte 0 -- -- 66
2019-04-01 07:00:00 10.9 8 Norte 10 Noroeste 0 -- -- 62
2019-04-01 06:00:00 11.1 6 Noroeste 7 Noroeste 0 -- -- 66
2019-04-01 05:00:00 11.1 0 Calma 4 Norte 0 -- -- 63
2019-04-01 04:00:00 11.2 3 Norte 10 Noroeste 0 -- -- 64
2019-04-01 03:00:00 11.2 6 Norte 10 Noroeste 0 -- -- 75
2019-04-01 02:00:00 11.5 5 Noroeste 7 Noroeste 0 -- -- 64
2019-04-01 01:00:00 11.7 0 Calma 7 Norte 0 -- -- 65
2019-04-01 00:00:00 12.2 6 Norte 11 Noroeste 0 -- -- 59
2019-03-31 23:00:00 12.3 8 Norte 12 Este 0 -- -- 70
2019-03-31 22:00:00 12.5 7 Nordeste 14 Nordeste 0 -- -- 78
2019-03-31 21:00:00 12.7 8 Nordeste 19 Este 0 -- -- 85
2019-03-31 20:00:00 12.9 12 Este 27 Este 0 -- -- 84
2019-03-31 19:00:00 13.4 19 Este 32 Este 0 -- -- 82
2019-03-31 18:00:00 13.6 22 Este 32 Este 0 -- -- 79
2019-03-31 17:00:00 14.6 22 Este 38 Este 0 -- -- 74
2019-03-31 16:00:00 14.8 18 Este 34 Este 0 -- -- 72
2019-03-31 15:00:00 14.7 23 Este 32 Este 0 -- -- 72
2019-03-31 14:00:00 14.7 23 Este 30 Este 0 -- -- 71
2019-03-31 13:00:00 14.3 23 Este 35 Este 0 -- -- 76
2019-03-31 12:00:00 14.8 17 Este 28 Este 0 -- -- 73
2019-03-31 11:00:00 14.2 12 Este 20 Este 0 -- -- 74
2019-03-31 10:00:00 12.4 9 Norte 17 Norte 0 -- -- 75
2019-03-31 09:00:00 10.7 13 Norte 26 Norte 0 -- -- 80
2019-03-31 08:00:00 10.4 15 Norte 21 Norte 0 -- -- 82
2019-03-31 07:00:00 10.5 12 Norte 18 Norte 0 -- -- 83
2019-03-31 06:00:00 10.5 8 Norte 12 Norte 0 -- -- 82
2019-03-31 05:00:00 10.4 9 Noroeste 14 Norte 0 -- -- 82
2019-03-31 03:00:00 9.9 9 Norte 15 Noroeste 0 -- -- 84
2019-03-31 01:00:00 10.7 10 Noroeste 18 Noroeste 0 -- -- 82
2019-03-31 00:00:00 11.2 9 Noroeste 15 Noroeste 0 -- -- 80
2019-03-30 23:00:00 11.4 9 Noroeste 12 Noroeste 0 -- -- 80
2019-03-30 22:00:00 11.6 3 Oeste 8 Sur 0 -- -- 80
2019-03-30 21:00:00 12.1 3 Sur 10 Sur 0 -- -- 76
2019-03-30 20:00:00 12.5 5 Este 14 Este 0 -- -- 75
2019-03-30 19:00:00 13.3 5 Este 16 Este 0 -- -- 73
2019-03-30 18:00:00 15.2 6 Sudeste 16 Este 0 -- -- 64
2019-03-30 17:00:00 16.7 7 Este 17 Sudeste 0 -- -- 60
2019-03-30 16:00:00 17.7 6 Sudeste 15 Sudeste 0 -- -- 55
2019-03-30 15:00:00 18.5 6 Sudeste 15 Sudeste 0 -- -- 55
2019-03-30 14:00:00 18.5 9 Sudeste 17 Sudeste 0 -- -- 50
2019-03-30 13:00:00 18 9 Sur 19 Sudeste 0 -- -- 57
2019-03-30 12:00:00 16.5 7 Este 16 Este 0 -- -- 65
2019-03-30 11:00:00 16.2 8 Este 17 Este 0 -- -- 63
2019-03-30 10:00:00 14.9 5 Nordeste 13 Este 0 -- -- 61
2019-03-30 09:00:00 12.1 6 Norte 19 Noroeste 0 -- -- 66
2019-03-30 08:00:00 10.3 11 Noroeste 20 Noroeste 0 -- -- 66
2019-03-30 07:00:00 9 14 Noroeste 20 Noroeste 0 -- -- 68
2019-03-30 06:00:00 8.8 15 Noroeste 23 Noroeste 0 -- -- 67
2019-03-30 05:00:00 8.8 15 Noroeste 23 Noroeste 0 -- -- 64
2019-03-30 04:00:00 9 14 Noroeste 23 Noroeste 0 -- -- 63
2019-03-30 03:00:00 9.7 12 Noroeste 18 Noroeste 0 -- -- 65
2019-03-30 02:00:00 9.7 13 Noroeste 21 Noroeste 0 -- -- 63
2019-03-30 01:00:00 9.9 6 Norte 10 Norte 0 -- -- 76
2019-03-30 00:00:00 10.1 6 Norte 7 Noroeste 0 -- -- 77
2019-03-29 23:00:00 10.6 4 Norte 10 Norte 0 -- -- 76
2019-03-29 22:00:00 10.6 4 Norte 12 Norte 0 -- -- 75
2019-03-29 21:00:00 11.2 7 Nordeste 12 Nordeste 0 -- -- 72
2019-03-29 20:00:00 12.1 6 Nordeste 12 Este 0 -- -- 69
2019-03-29 19:00:00 13.2 8 Este 12 Este 0 -- -- 63
2019-03-29 18:00:00 14.7 6 Este 13 Este 0 -- -- 60
2019-03-29 17:00:00 16 7 Este 14 Sudeste 0 -- -- 60
2019-03-29 16:00:00 17.3 7 Este 15 Sudeste 0 -- -- 55
2019-03-29 15:00:00 18.3 6 Sudeste 12 Sudeste 0 -- -- 48
2019-03-29 14:00:00 18.2 6 Sudeste 14 Sudeste 0 -- -- 47
2019-03-29 13:00:00 17.5 9 Este 14 Este 0 -- -- 47
2019-03-29 12:00:00 17 8 Este 13 Este 0 -- -- 45
2019-03-29 11:00:00 16.2 8 Este 11 Este 0 -- -- 62
2019-03-29 10:00:00 16.4 5 Sudeste 9 Sur 0 -- -- 66
2019-03-29 09:00:00 13.2 5 Norte 11 Noroeste 0 -- -- 69
2019-03-29 08:00:00 11.2 9 Noroeste 14 Noroeste 0 -- -- 65
2019-03-29 07:00:00 9 9 Noroeste 13 Noroeste 0 -- -- 69
2019-03-29 06:00:00 10.1 7 Nordeste 15 Nordeste 0 -- -- 68
2019-03-29 05:00:00 9.7 4 Nordeste 18 Norte 0 -- -- 66
2019-03-29 04:00:00 10.3 13 Norte 20 Noroeste 0 -- -- 64
2019-03-29 03:00:00 10.2 16 Noroeste 24 Noroeste 0 -- -- 61
2019-03-29 02:00:00 10.8 10 Noroeste 16 Noroeste 0 -- -- 57
2019-03-29 01:00:00 10.5 8 Noroeste 11 Noroeste 0 -- -- 60
2019-03-29 00:00:00 10.7 0 Calma 5 Noroeste 0 -- -- 59
2019-03-28 23:00:00 11.2 0 Calma 15 Noroeste 0 -- -- 55
2019-03-28 22:00:00 12 8 Noroeste 17 Oeste 0 -- -- 56
2019-03-28 21:00:00 12 6 Oeste 14 Oeste 0 -- -- 67
2019-03-28 20:00:00 11.9 7 Oeste 12 Oeste 0 -- -- 73
2019-03-28 19:00:00 13 3 Sur 6 Sur 0 -- -- 66
2019-03-28 18:00:00 14.2 4 Sudeste 10 Este 0 -- -- 61
2019-03-28 17:00:00 14.8 6 Este 21 Este 0 -- -- 58
2019-03-28 16:00:00 15.1 11 Este 27 Este 0 -- -- 57
2019-03-28 15:00:00 15 17 Este 29 Este 0 -- -- 58
2019-03-28 14:00:00 15.1 18 Este 32 Este 0 -- -- 55
2019-03-28 13:00:00 15.4 21 Este 30 Este 0 -- -- 62
2019-03-28 12:00:00 18.7 5 Sudeste 13 Sudeste 0 -- -- 45
2019-03-28 11:00:00 17.9 6 Sudeste 12 Este 0 -- -- 46
2019-03-28 10:00:00 17 6 Sudeste 10 Este 0 -- -- 41
2019-03-28 09:00:00 14.1 3 Norte 20 Noroeste 0 -- -- 40
2019-03-28 08:00:00 11.3 15 Noroeste 25 Noroeste 0 -- -- 43
2019-03-28 07:00:00 10.2 14 Norte 22 Norte 0 -- -- 47
2019-03-28 06:00:00 10.5 14 Norte 19 Norte 0 -- -- 48
2019-03-28 05:00:00 10.5 13 Norte 21 Norte 0 -- -- 53
2019-03-28 04:00:00 10.5 13 Norte 21 Nordeste 0 -- -- 51
2019-03-28 03:00:00 10.7 17 Norte 28 Norte 0 -- -- 51
2019-03-28 02:00:00 10.5 19 Norte 27 Norte 0 -- -- 53
2019-03-28 01:00:00 10.6 10 Norte 20 Noroeste 0 -- -- 54
2019-03-28 00:00:00 10.6 14 Noroeste 24 Noroeste 0 -- -- 60
2019-03-27 23:00:00 10.5 8 Noroeste 13 Noroeste 0 -- -- 66
2019-03-27 22:00:00 10.4 4 Norte 7 Nordeste 0 -- -- 68
2019-03-27 21:00:00 10.8 4 Norte 8 Nordeste 0 -- -- 68
2019-03-27 20:00:00 11.7 3 Oeste 15 Sudoeste 0 -- -- 64
2019-03-27 19:00:00 12.9 9 Sudoeste 17 Sudoeste 0 -- -- 61
2019-03-27 18:00:00 15.3 7 Sur 12 Sudoeste 0 -- -- 53
2019-03-27 17:00:00 16.2 7 Sur 15 Sudeste 0 -- -- 50
2019-03-27 16:00:00 17.3 10 Sudeste 18 Sudeste 0 -- -- 46
2019-03-27 15:00:00 17.6 5 Sur 19 Sudeste 0 -- -- 45
2019-03-27 14:00:00 19.4 12 Sur 19 Sudeste 0 -- -- 40
2019-03-27 13:00:00 19.7 11 Sur 18 Sur 0 -- -- 36
2019-03-27 12:00:00 19.1 10 Sur 17 Sudeste 0 -- -- 37
2019-03-27 11:00:00 17.4 8 Sur 15 Sudoeste 0 -- -- 33
2019-03-27 10:00:00 14.7 3 Oeste 12 Noroeste 0 -- -- 29
2019-03-27 09:00:00 11.9 6 Noroeste 18 Noroeste 0 -- -- 33
2019-03-27 08:00:00 10.5 8 Noroeste 17 Norte 0 -- -- 35
2019-03-27 07:00:00 7.6 5 Noroeste 15 Sudoeste 0 -- -- 40
2019-03-27 06:00:00 8.2 5 Oeste 12 Noroeste 0 -- -- 39
2019-03-27 05:00:00 9.8 5 Noroeste 18 Norte 0 -- -- 32
2019-03-27 04:00:00 11.2 6 Norte 19 Norte 0 -- -- 29
2019-03-27 03:00:00 11.8 9 Norte 20 Nordeste 0 -- -- 28
2019-03-27 02:00:00 12.6 11 Nordeste 25 Nordeste 0 -- -- 27
2019-03-27 01:00:00 11.7 7 Norte 17 Este 0 -- -- 28
2019-03-27 00:00:00 12.1 9 Oeste 14 Oeste 0 -- -- 38